Flight Track Log - Related Links

Times and Time Zones

All times are in EDT time to prevent confusion due to time zone crossing. See the UAL4191 flight status page for this flight to view local times or setup timezone preferences in your user account.


Time Position Orientation Groundspeed Altitude Reporting Facility
EDT Latitude Longitude Course Direction KTS MPH feet Rate Location/Type
Sun 07:37:01 AM 33.6606 -101.7906 145° Southeast 170 196 3,900  Level Fort Worth Center
Sun 07:38:08 AM 33.6614 -101.7083 89° East 217 250 6,400 2,301 Climbing Fort Worth Center
Sun 07:39:14 AM 33.6092 -101.6483 136° Southeast 258 297 9,000 1,735 Climbing Fort Worth Center
Sun 07:40:00 AM 33.3404 -101.4570 140° Southeast  Level FlightAware Approximate
Sun 07:40:54 AM 33.5025 -101.5311 137° Southeast 334 384 11,200  Level Fort Worth Center
Sun 07:41:00 AM 33.2585 -101.3710 136° Southeast  Level FlightAware Approximate
Sun 07:41:54 AM 33.4358 -101.4608 139° Southeast 358 412 12,600  Level Fort Worth Center
Sun 07:42:00 AM 33.1800 -101.2805 145° Southeast  Level FlightAware Approximate
Sun 07:42:54 AM 33.3511 -101.3672 137° Southeast 371 427 14,600  Level Fort Worth Center
Sun 07:43:54 AM 33.2783 -101.2944 140° Southeast 371 427 16,100 1,550 Climbing Fort Worth Center
Sun 07:44:54 AM 33.1872 -101.2011 139° Southeast 390 449 17,700 1,550 Climbing Fort Worth Center
Sun 07:45:54 AM 33.1125 -101.1186 137° Southeast 396 456 19,200 1,550 Climbing Fort Worth Center
Sun 07:46:54 AM 33.0172 -101.0231 140° Southeast 401 461 20,800 1,450 Climbing Fort Worth Center
Sun 07:47:54 AM 32.9361 -100.9406 140° Southeast 414 476 22,100 1,400 Climbing Fort Worth Center
Sun 07:48:54 AM 32.8467 -100.8481 139° Southeast 420 483 23,600 1,550 Climbing Fort Worth Center
Sun 07:49:54 AM 32.7556 -100.7531 139° Southeast 425 489 25,200 1,500 Climbing Fort Worth Center
Sun 07:50:54 AM 32.6639 -100.6583 139° Southeast 430 495 26,600 1,200 Climbing Fort Worth Center
Sun 07:51:54 AM 32.5703 -100.5639 140° Southeast 440 506 27,600 1,000 Climbing Fort Worth Center
Sun 07:52:54 AM 32.4728 -100.4644 139° Southeast 446 513 28,600 950 Climbing Fort Worth Center
Sun 07:53:54 AM 32.3728 -100.3625 139° Southeast 463 533 29,500 900 Climbing Fort Worth Center
Sun 07:54:54 AM 32.2728 -100.2586 139° Southeast 469 540 30,400 750 Climbing Fort Worth Center
Sun 07:55:54 AM 32.1544 -100.1397 140° Southeast 488 562 31,000 300 Climbing Fort Worth Center
Sun 07:56:54 AM 32.0483 -100.0311 139° Southeast 502 578 31,000  Level Fort Worth Center
Sun 07:57:54 AM 31.9378 -99.9203 140° Southeast 517 595 31,000  Level Fort Worth Center
Sun 07:59:26 AM 31.7864 -99.7653 139° Southeast 521 600 31,000  Level Houston Center
Sun 08:00:27 AM 31.6753 -99.6536 139° Southeast 525 604 31,000  Level Houston Center
Sun 08:01:28 AM 31.5628 -99.5428 140° Southeast 525 604 31,000  Level Houston Center
Sun 08:02:28 AM 31.4453 -99.4244 139° Southeast 532 612 31,000  Level Houston Center
Sun 08:03:29 AM 31.3319 -99.3128 140° Southeast 531 611 31,000  Level Houston Center
Sun 08:04:30 AM 31.2236 -99.2075 140° Southeast 530 610 31,000  Level Houston Center
Sun 08:05:31 AM 31.1047 -99.0886 139° Southeast 529 609 31,000  Level Houston Center
Sun 08:06:31 AM 30.9919 -98.9792 140° Southeast 525 604 31,000  Level Houston Center
Sun 08:07:32 AM 30.8797 -98.8689 140° Southeast 522 601 31,000  Level Houston Center
Sun 08:08:33 AM 30.8061 -98.7206 120° Southeast 541 623 31,000  Level Houston Center
Sun 08:09:34 AM 30.8011 -98.5464 92° East 538 619 31,000  Level Houston Center
Sun 08:10:34 AM 30.8036 -98.3722 89° East 535 616 31,000  Level Houston Center
Sun 08:11:35 AM 30.8072 -98.1961 89° East 540 621 31,000  Level Houston Center
Sun 08:12:36 AM 30.8106 -97.9906 89° East 541 623 31,000  Level Houston Center
Sun 08:13:37 AM 30.8133 -97.8142 89° East 541 623 31,000  Level Houston Center
Sun 08:14:38 AM 30.8161 -97.6369 89° East 544 626 31,000  Level Houston Center
Sun 08:15:39 AM 30.8175 -97.4603 89° East 544 626 31,000  Level Houston Center
Sun 08:16:39 AM 30.8197 -97.2839 89° East 553 636 31,000  Level Houston Center
Sun 08:17:40 AM 30.8217 -97.1075 89° East 555 639 31,000 -295 Level Houston Center
Sun 08:18:41 AM 30.7939 -96.9356 101° East 539 620 30,400 -1,525 Descending Houston Center
Sun 08:19:42 AM 30.7417 -96.7703 110° East 540 621 27,900 -2,705 Descending Houston Center
Sun 08:20:43 AM 30.6892 -96.6083 111° Southeast 533 613 24,900 -2,951 Descending Houston Center
Sun 08:21:44 AM 30.6411 -96.4506 109° East 518 596 21,900 -3,071 Descending Houston Center
Sun 08:22:07 AM 30.6217 -96.3892 110° East 489 563 20,600 -2,754 Descending Houston Center
Sun 08:22:45 AM 30.5964 -96.3058 109° East 480 552 19,100 -2,557 Descending Houston Center
Sun 08:23:08 AM 30.5761 -96.2439 111° Southeast 453 521 18,000 -2,262 Descending Houston Center
Sun 08:23:46 AM 30.5522 -96.1722 111° Southeast 447 514 16,800 -2,328 Descending Houston Center
Sun 08:24:15 AM 30.5281 -96.0992 111° Southeast 414 476 15,400 -2,656 Descending Houston Center
Sun 08:24:47 AM 30.5069 -96.0350 111° Southeast 410 472 14,100 -2,262 Descending Houston Center
Sun 08:25:16 AM 30.4908 -95.9822 109° East 397 457 13,100 -1,475 Descending Houston Center
Sun 08:25:48 AM 30.4742 -95.9278 110° East 397 457 12,600 -1,100 Descending Houston Center
Sun 08:26:16 AM 30.4467 -95.8614 116° Southeast 381 438 12,000 -1,082 Descending Houston Center
Sun 08:26:49 AM 30.4183 -95.8253 132° Southeast 381 438 11,500 -1,377 Descending Houston Center
Sun 08:27:17 AM 30.3703 -95.7783 140° Southeast 379 436 10,600 -1,180 Descending Houston Center
Sun 08:27:50 AM 30.3411 -95.7450 135° Southeast 376 433 10,300 -590 Descending Houston Center
Sun 08:28:18 AM 30.2936 -95.6953 138° Southeast 377 434 10,000 -295 Descending Houston Center
Sun 08:28:51 AM 30.2644 -95.6656 139° Southeast 372 428 10,000 -218 Level Houston Center
Sun 08:29:13 AM 30.2314 -95.6325 139° Southeast 287 330 9,800 -1,082 Descending Houston Center
Sun 08:29:52 AM 30.2039 -95.6028 137° Southeast 295 339 8,900 -1,900 Descending Houston Center
Sun 08:30:13 AM 30.1733 -95.5717 139° Southeast 284 327 7,900 -1,869 Descending Houston Center
Sun 08:30:53 AM 30.1472 -95.5425 136° Southeast 279 321 7,000 -1,672 Descending Houston Center
Sun 08:31:14 AM 30.1175 -95.5106 137° Southeast 263 303 6,200 -984 Descending Houston Center
Sun 08:31:54 AM 30.1056 -95.4578 105° East 267 307 6,000 -197 Descending Houston Center
Sun 08:32:15 AM 30.1056 -95.4253 90° East 282 325 6,000  Level Houston Center
Sun 08:32:55 AM 30.1064 -95.3686 89° East 276 318 6,000  Level Houston Center
Sun 08:33:16 AM 30.1058 -95.3358 91° East 282 325 6,000 -492 Level Houston Center
Sun 08:33:56 AM 30.1061 -95.2783 90° East 279 321 5,500 -1,082 Descending Houston Center
Sun 08:34:17 AM 30.1064 -95.2489 89° East 270 311 4,900 -1,672 Descending Houston Center
Sun 08:34:57 AM 30.1064 -95.1944 90° East 264 304 3,800 -1,770 Descending Houston Center
Sun 08:35:18 AM 30.0967 -95.1678 113° Southeast 242 278 3,100 -1,082 Descending Houston Center
Sun 08:35:58 AM 30.0622 -95.1658 177° South 225 259 2,700 -689 Descending Houston Center
Sun 08:36:19 AM 30.0433 -95.1817 216° Southwest 197 227 2,400 -984 Descending Houston Center
Sun 08:36:59 AM 30.0214 -95.2081 226° Southwest 199 229 1,700 -1,050 Descending Houston Center

Login

Don't have an account? Register now (free) for customized features, flight alerts, and more!